Kobuk Valley National Park, AK

9:43 AM AKDT op 31 oktober 2014 (GMT -0800)
Ambler | Change Station
CLOSE
Current Station
Luchthaven
Location: Ambler,
Geometrische hoogte: 289 ft
Nabije weerstations

Hoogte 289 ft 67.11 °N, 157.86 °W | Updated 11 hours ago

Clear
3 °F
Voelt als -17 °F
N
24
Wind Variabel Wind van NO
Gusts 31 mijl/u

Vandaag
Hoog -- | Laag -- °F
--% Kans op neerslag
Gisteren
Hoog -- | Laag -- °F
Precip. -- inches
10:45 AM 6:02 PM
Eerste kwartier, 57% visible
Druk 29.84 inches
Zicht 10.0 mijlen
Wolken
Gevoelstemperatuur -17 °F
Dauwpunt 3 °F
Vochtigheid 95%
Neerslag 0.00 inches
Dikte sneeuw Niet beschikbaar.
UV Niet beschikbaar.
Pollen Niet beschikbaar.
Luchtkwaliteit Niet beschikbaar.
Flu Activity Niet beschikbaar.
METAR PAFM 310556Z AUTO 00000KT 10SM M21/M24 A2984 RMK AO1 57007

More Conditions Fewer Conditions

Druk 29.84 inches
Zicht 10.0 mijlen
Wolken
Gevoelstemperatuur -17 °F
Dauwpunt 3 °F
Vochtigheid 95%
Neerslag 0.00 inches
Dikte sneeuw Niet beschikbaar.
UV Niet beschikbaar.
Pollen Niet beschikbaar.
Luchtkwaliteit Niet beschikbaar.
Flu Activity Niet beschikbaar.
METAR PAFM 310556Z AUTO 00000KT 10SM M21/M24 A2984 RMK AO1 57007

More Conditions Fewer Conditions

10-Day Weather Forecast

Almanac

Astronomie

Oct. 31, 2014 Opkomst Ondergang
Werkelijke tijd
Burgerlijke schemering
Nautische schemering
Astronomische schemering
Maan
Golflengte van het zichtbare licht
Daglengte
Tomorrow will be .
, % of the Moon is Illuminated

Extremen vandaag

State Highs State Lows

Community

WunderPhotos

Upload Photos

1,766,673 foto’s ge-upload!

WunderBlogs® & News

Nearby

Luchtkwaliteit

  Luchtkwaliteit LK-index Verontreinigende stof
Not available.

Dikte sneeuw

Station Depth Geometrische hoogte

Aardbevingen

Stad Distance Mag. Time & Date
Minimum magnitude displayed is 2.5.

Watertemperatuur langs de kust

Plaats Temperatuur

Nabije weerstations